Time;durP1;ratioP1;P1;durP2;ratioP2;P2;SDS_P1;SDS_P2;PMS_P1;PMS_P2;Temp;Humidity;BMP_temperature;BMP_pressure;BME280_temperature;BME280_humidity;BME280_pressure;Samples;Min_cycle;Max_cycle;Signal;HPM_P1;HPM_P2
2022/04/15 00:00:26;;;;;;;29.95;16.67;;;;;;;13.15;86.03;95898.59;5106014;28;20712;-75
2022/04/15 00:03:02;;;;;;;28.70;17.45;;;;;;;13.22;85.41;95904.34;5092524;28;20479;-75
2022/04/15 00:05:36;;;;;;;27.40;16.92;;;;;;;13.20;86.43;95903.81;5091976;28;20096;-74
2022/04/15 00:08:12;;;;;;;29.77;17.00;;;;;;;13.20;86.82;95911.75;5095214;28;20042;-75
2022/04/15 00:10:45;;;;;;;31.17;16.95;;;;;;;13.29;86.48;95899.53;5080290;28;20040;-74
2022/04/15 00:13:12;;;;;;;29.30;17.15;;;;;;;13.12;87.98;95889.34;5093462;28;20043;-73
2022/04/15 00:15:41;;;;;;;32.88;17.02;;;;;;;13.15;88.07;95903.88;5086391;28;20461;-74
2022/04/15 00:18:06;;;;;;;30.23;18.63;;;;;;;13.12;88.69;95909.72;5109409;28;20101;-75
2022/04/15 00:20:32;;;;;;;30.13;17.88;;;;;;;13.10;90.05;95932.97;5092539;28;20040;-75
2022/04/15 00:22:58;;;;;;;35.75;19.05;;;;;;;13.01;91.72;95930.09;5093366;28;20505;-74
2022/04/15 00:25:25;;;;;;;34.78;20.75;;;;;;;12.88;94.94;95931.50;5101503;28;20108;-74
2022/04/15 00:27:51;;;;;;;34.47;21.38;;;;;;;12.87;99.04;95913.28;5093098;28;20063;-74
2022/04/15 00:30:17;;;;;;;44.45;22.65;;;;;;;12.75;100.00;95916.28;5103347;28;20036;-74
2022/04/15 00:32:43;;;;;;;38.28;22.10;;;;;;;12.60;100.00;95920.56;5095498;28;20040;-74
2022/04/15 00:35:09;;;;;;;39.97;23.50;;;;;;;12.46;100.00;95909.03;5092282;28;20062;-74
2022/04/15 00:37:35;;;;;;;38.55;23.75;;;;;;;12.45;100.00;95910.06;5103585;28;20071;-74
2022/04/15 00:40:02;;;;;;;41.45;23.80;;;;;;;12.43;100.00;95914.84;5095463;28;20032;-74
2022/04/15 00:42:29;;;;;;;41.05;24.85;;;;;;;12.39;100.00;95908.53;5092945;28;20044;-75
2022/04/15 00:44:56;;;;;;;43.28;25.25;;;;;;;12.41;100.00;95911.69;5094739;28;20070;-75
2022/04/15 00:47:36;;;;;;;48.22;27.85;;;;;;;12.32;100.00;95919.38;5109441;28;20047;-75
2022/04/15 00:50:04;;;;;;;57.80;28.17;;;;;;;12.35;100.00;95928.59;5080682;28;20091;-75
2022/04/15 00:52:34;;;;;;;52.28;30.73;;;;;;;12.30;100.00;95937.34;5110383;28;20040;-75
2022/04/15 00:55:03;;;;;;;63.47;32.65;;;;;;;12.09;100.00;95944.50;5111231;28;20443;-75
2022/04/15 00:57:30;;;;;;;66.13;33.22;;;;;;;12.07;100.00;95936.88;5090730;28;20039;-76
2022/04/15 00:59:58;;;;;;;72.50;33.95;;;;;;;12.05;100.00;95943.47;5093049;28;20059;-77
2022/04/15 01:02:25;;;;;;;68.30;35.75;;;;;;;11.95;100.00;95937.16;5076274;28;20040;-77
2022/04/15 01:04:55;;;;;;;66.82;36.30;;;;;;;11.91;100.00;95925.53;5091900;28;20043;-78
2022/04/15 01:07:25;;;;;;;66.95;34.95;;;;;;;11.92;100.00;95911.28;5091535;28;20059;-79
2022/04/15 01:09:52;;;;;;;80.28;39.28;;;;;;;11.75;100.00;95918.69;5081515;28;20747;-79
2022/04/15 01:12:21;;;;;;;84.28;39.30;;;;;;;11.72;100.00;95937.69;5093530;28;20120;-78
2022/04/15 01:14:48;;;;;;;72.28;36.65;;;;;;;11.70;100.00;95930.03;5078170;28;20117;-79
2022/04/15 01:17:14;;;;;;;63.03;34.72;;;;;;;11.66;100.00;95907.13;5080525;28;20036;-79
2022/04/15 01:19:41;;;;;;;71.28;34.53;;;;;;;11.64;100.00;95915.28;5073804;28;20488;-80
2022/04/15 01:22:15;;;;;;;67.25;34.80;;;;;;;11.56;100.00;95916.59;5095894;28;20047;-79
2022/04/15 01:24:40;;;;;;;74.93;35.08;;;;;;;11.48;100.00;95917.16;5098904;28;20074;-79
2022/04/15 01:27:09;;;;;;;67.68;36.08;;;;;;;11.39;100.00;95919.53;5089034;28;20549;-80
2022/04/15 01:29:39;;;;;;;72.65;35.83;;;;;;;11.41;100.00;95921.91;5104466;28;20047;-80
2022/04/15 01:32:07;;;;;;;74.47;37.05;;;;;;;11.40;100.00;95926.38;5097566;28;20505;-79
2022/04/15 01:34:34;;;;;;;76.30;35.90;;;;;;;11.35;100.00;95929.03;5082272;28;20036;-79
2022/04/15 01:37:00;;;;;;;80.70;36.05;;;;;;;11.42;100.00;95918.19;5102276;28;20393;-79
2022/04/15 01:39:31;;;;;;;68.55;35.97;;;;;;;11.34;100.00;95916.09;5086899;28;20048;-78
2022/04/15 01:41:57;;;;;;;74.35;36.90;;;;;;;11.32;100.00;95920.84;5100682;28;20043;-78
2022/04/15 01:44:23;;;;;;;71.10;34.50;;;;;;;11.34;100.00;95921.38;5096337;28;20108;-78
2022/04/15 01:46:48;;;;;;;72.15;35.38;;;;;;;11.30;100.00;95917.69;5089877;28;20501;-79
2022/04/15 01:49:14;;;;;;;74.97;36.83;;;;;;;11.22;100.00;95919.78;5110112;28;20108;-79
2022/04/15 01:51:39;;;;;;;72.95;35.53;;;;;;;11.29;100.00;95916.09;5086907;28;20051;-78
2022/04/15 01:54:05;;;;;;;67.13;32.80;;;;;;;11.34;100.00;95906.34;5090328;28;20035;-78
2022/04/15 01:56:31;;;;;;;65.28;31.42;;;;;;;11.26;100.00;95907.69;5074658;28;20051;-79
2022/04/15 01:58:57;;;;;;;70.72;33.70;;;;;;;11.12;100.00;95914.53;5090809;28;20824;-78
2022/04/15 02:01:22;;;;;;;67.40;30.95;;;;;;;11.11;100.00;95918.19;5090659;28;20105;-78
2022/04/15 02:03:48;;;;;;;63.33;28.92;;;;;;;11.23;100.00;95921.38;5090486;28;20039;-78
2022/04/15 02:06:13;;;;;;;61.15;29.90;;;;;;;11.16;100.00;95920.84;5097282;28;20035;-78
2022/04/15 02:08:39;;;;;;;55.47;27.50;;;;;;;11.20;100.00;95911.34;5091980;28;20035;-78
2022/04/15 02:11:04;;;;;;;60.15;28.70;;;;;;;11.15;100.00;95918.44;5108422;28;20421;-78
2022/04/15 02:13:30;;;;;;;55.53;28.50;;;;;;;11.07;100.00;95917.13;5107671;28;20097;-77
2022/04/15 02:15:55;;;;;;;60.35;28.15;;;;;;;11.11;100.00;95912.94;5093227;28;20036;-77
2022/04/15 02:18:21;;;;;;;63.67;29.33;;;;;;;11.12;100.00;95922.44;5073082;28;20442;-78
2022/04/15 02:20:46;;;;;;;58.58;29.58;;;;;;;11.07;100.00;95932.94;5091490;28;20099;-78
2022/04/15 02:23:12;;;;;;;65.22;30.63;;;;;;;10.98;100.00;95931.88;5082141;28;20040;-78
2022/04/15 02:25:37;;;;;;;59.33;28.02;;;;;;;11.00;100.00;95937.66;5110595;28;20548;-78
2022/04/15 02:28:03;;;;;;;59.13;29.73;;;;;;;10.94;100.00;95936.88;5103659;28;20741;-77
2022/04/15 02:30:29;;;;;;;64.65;30.08;;;;;;;10.91;100.00;95935.53;5074572;28;20040;-78
2022/04/15 02:32:54;;;;;;;55.25;28.88;;;;;;;10.96;100.00;95936.59;5096864;28;20032;-78
2022/04/15 02:35:20;;;;;;;62.55;27.98;;;;;;;11.02;100.00;95935.56;5092002;28;20039;-78
2022/04/15 02:37:45;;;;;;;57.22;27.83;;;;;;;11.00;100.00;95942.94;5092607;28;20551;-78
2022/04/15 02:40:11;;;;;;;55.95;27.98;;;;;;;11.01;100.00;95955.06;5090849;28;20040;-77
2022/04/15 02:42:37;;;;;;;55.17;27.83;;;;;;;11.03;100.00;95952.94;5091500;28;20048;-78
2022/04/15 02:45:03;;;;;;;52.47;27.05;;;;;;;11.09;100.00;95951.91;5098737;28;20036;-79
2022/04/15 02:47:29;;;;;;;57.88;27.63;;;;;;;11.11;100.00;95960.34;5110160;28;20127;-78
2022/04/15 02:49:55;;;;;;;53.75;25.58;;;;;;;11.12;100.00;95961.94;5072469;28;20172;-78
2022/04/15 02:52:21;;;;;;;56.75;27.17;;;;;;;11.00;100.00;95954.25;5090185;28;20036;-78
2022/04/15 02:54:46;;;;;;;59.63;27.10;;;;;;;11.01;100.00;95947.16;5104445;28;20700;-79
2022/04/15 02:57:12;;;;;;;64.43;26.50;;;;;;;11.00;100.00;95948.22;5087108;28;20051;-79
2022/04/15 02:59:38;;;;;;;53.38;26.20;;;;;;;10.98;100.00;95945.06;5096596;28;20071;-78
2022/04/15 03:02:03;;;;;;;59.80;27.92;;;;;;;10.97;100.00;95954.00;5105808;28;20035;-78
2022/04/15 03:04:29;;;;;;;57.67;26.88;;;;;;;11.06;100.00;95957.69;5075824;28;20040;-79
2022/04/15 03:06:54;;;;;;;57.08;26.55;;;;;;;11.07;100.00;95951.38;5103292;28;20047;-78
2022/04/15 03:09:21;;;;;;;55.92;26.75;;;;;;;11.09;100.00;95951.91;5111897;28;20035;-78
2022/04/15 03:11:48;;;;;;;51.88;25.90;;;;;;;11.04;100.00;95951.91;5095446;28;20048;-78
2022/04/15 03:14:13;;;;;;;58.75;27.08;;;;;;;11.04;100.00;95954.53;5100774;28;20096;-78
2022/04/15 03:16:38;;;;;;;55.95;27.80;;;;;;;11.09;100.00;95962.44;5105918;28;20457;-79
2022/04/15 03:19:04;;;;;;;63.83;29.38;;;;;;;11.09;100.00;95960.59;5112013;28;20190;-79
2022/04/15 03:21:30;;;;;;;59.90;28.52;;;;;;;11.05;100.00;95956.13;5113804;28;20043;-79
2022/04/15 03:23:56;;;;;;;58.45;28.52;;;;;;;11.11;100.00;95959.56;5105161;27;20067;-78
2022/04/15 03:26:22;;;;;;;66.75;28.60;;;;;;;11.02;100.00;95957.44;5094654;28;20036;-78
2022/04/15 03:28:47;;;;;;;64.93;28.60;;;;;;;11.04;100.00;95954.53;5106528;28;20512;-78
2022/04/15 03:31:13;;;;;;;66.75;29.42;;;;;;;11.03;100.00;95952.94;5103586;28;20073;-79
2022/04/15 03:33:39;;;;;;;71.05;29.92;;;;;;;11.09;100.00;95951.91;5114214;28;20546;-79
2022/04/15 03:36:04;;;;;;;62.50;29.70;;;;;;;11.11;100.00;95956.94;5098165;28;20050;-78
2022/04/15 03:38:30;;;;;;;56.67;29.65;;;;;;;11.07;100.00;95948.75;5113558;28;20054;-79
2022/04/15 03:40:55;;;;;;;74.30;32.28;;;;;;;11.11;100.00;95960.34;5097847;28;20504;-78
2022/04/15 03:43:21;;;;;;;75.15;32.22;;;;;;;11.07;100.00;95956.66;5099896;28;20037;-79
2022/04/15 03:45:46;;;;;;;69.95;33.33;;;;;;;11.09;100.00;95957.16;5106377;28;20050;-79
2022/04/15 03:48:12;;;;;;;75.78;34.67;;;;;;;11.12;100.00;95951.41;5101814;28;20112;-78
2022/04/15 03:50:38;;;;;;;78.45;35.25;;;;;;;11.11;100.00;95947.19;5105968;28;20105;-78
2022/04/15 03:53:03;;;;;;;71.63;32.70;;;;;;;11.10;100.00;95945.59;5107524;28;20398;-79
2022/04/15 03:55:29;;;;;;;75.20;32.55;;;;;;;11.06;100.00;95952.41;5108293;28;20059;-78
2022/04/15 03:57:54;;;;;;;84.10;35.15;;;;;;;11.06;100.00;95957.69;5118818;28;20055;-78
2022/04/15 04:00:22;;;;;;;77.18;35.55;;;;;;;11.09;100.00;95962.44;5115023;28;20044;-78
2022/04/15 04:02:51;;;;;;;92.63;35.72;;;;;;;11.07;100.00;95959.28;5097360;28;20077;-78
2022/04/15 04:05:17;;;;;;;79.20;35.45;;;;;;;11.09;100.00;95967.69;5100217;28;20039;-78
2022/04/15 04:07:43;;;;;;;72.85;35.20;;;;;;;11.20;100.00;95966.66;5080754;28;20494;-78
2022/04/15 04:10:13;;;;;;;79.20;36.50;;;;;;;11.16;100.00;95957.72;5098810;28;20081;-78
2022/04/15 04:12:40;;;;;;;71.38;34.22;;;;;;;11.19;100.00;95956.38;5119244;28;20040;-78
2022/04/15 04:15:07;;;;;;;82.05;35.63;;;;;;;11.16;100.00;95968.25;5116959;28;20042;-78
2022/04/15 04:17:33;;;;;;;77.88;37.60;;;;;;;11.16;100.00;95957.72;5110306;28;20128;-78
2022/04/15 04:19:59;;;;;;;89.28;39.55;;;;;;;11.15;100.00;95956.13;5099562;28;20039;-78
2022/04/15 04:22:35;;;;;;;81.97;35.85;;;;;;;11.28;100.00;95962.75;5100551;28;20040;-77
2022/04/15 04:25:02;;;;;;;71.28;35.20;;;;;;;11.21;100.00;95973.53;5083728;28;20040;-77
2022/04/15 04:27:28;;;;;;;76.18;35.05;;;;;;;11.21;100.00;95976.16;5112062;28;20046;-78
2022/04/15 04:29:53;;;;;;;80.25;39.17;;;;;;;11.19;100.00;95975.66;5112260;28;20114;-78
2022/04/15 04:32:19;;;;;;;94.53;40.50;;;;;;;11.13;100.00;95979.31;5113621;28;20036;-78
2022/04/15 04:34:46;;;;;;;97.68;41.25;;;;;;;11.13;100.00;95974.03;5118135;28;20416;-78
2022/04/15 04:37:12;;;;;;;92.32;39.78;;;;;;;11.09;100.00;95972.97;5100109;28;20051;-78
2022/04/15 04:39:37;;;;;;;99.97;42.55;;;;;;;11.10;100.00;95974.56;5087349;28;20075;-78
2022/04/15 04:42:03;;;;;;;95.03;40.38;;;;;;;11.20;100.00;95979.84;5112253;28;20044;-77
2022/04/15 04:44:31;;;;;;;100.05;41.47;;;;;;;11.14;100.00;95975.63;5105448;28;20464;-77
2022/04/15 04:46:58;;;;;;;99.90;43.38;;;;;;;11.11;100.00;95986.69;5092421;28;20044;-78
2022/04/15 04:49:25;;;;;;;96.88;40.60;;;;;;;11.07;100.00;95985.63;5075134;28;20070;-76
2022/04/15 04:51:50;;;;;;;99.68;43.33;;;;;;;11.07;100.00;95996.16;5103635;28;20409;-77
2022/04/15 04:54:16;;;;;;;110.78;44.20;;;;;;;11.14;100.00;96001.97;5096827;28;20036;-77
2022/04/15 04:56:42;;;;;;;117.70;45.50;;;;;;;11.18;100.00;95997.75;5098256;28;20051;-78
2022/04/15 04:59:07;;;;;;;118.45;46.80;;;;;;;11.15;100.00;95995.66;5083795;28;20036;-78
2022/04/15 05:01:33;;;;;;;113.95;44.67;;;;;;;11.15;100.00;95997.47;5109426;28;20075;-78
2022/04/15 05:03:58;;;;;;;133.00;48.53;;;;;;;11.14;100.00;95999.31;5105999;28;20388;-79
2022/04/15 05:06:24;;;;;;;126.20;48.55;;;;;;;11.16;100.00;96015.69;5094232;28;20040;-78
2022/04/15 05:08:50;;;;;;;129.02;48.42;;;;;;;11.23;100.00;96013.59;5096539;28;20048;-76
2022/04/15 05:11:16;;;;;;;134.68;49.78;;;;;;;11.26;100.00;96010.44;5110901;28;20052;-77
2022/04/15 05:13:41;;;;;;;126.60;48.50;;;;;;;11.24;100.00;96011.72;5103075;28;20046;-77
2022/04/15 05:16:07;;;;;;;132.85;48.58;;;;;;;11.20;100.00;96016.72;5077439;28;20547;-78
2022/04/15 05:18:32;;;;;;;125.47;49.63;;;;;;;11.26;100.00;96013.06;5104826;28;20420;-77
2022/04/15 05:20:58;;;;;;;118.68;48.25;;;;;;;11.33;100.00;96017.28;5111484;28;20110;-74
2022/04/15 05:23:24;;;;;;;120.20;48.17;;;;;;;11.32;100.00;96018.31;5111207;28;20497;-74
2022/04/15 05:25:49;;;;;;;114.80;48.28;;;;;;;11.31;100.00;96011.50;5113840;27;20061;-74
2022/04/15 05:28:14;;;;;;;111.93;46.83;;;;;;;11.25;100.00;96015.97;5109267;27;20497;-77
2022/04/15 05:30:40;;;;;;;121.50;47.15;;;;;;;11.24;100.00;96017.00;5107600;28;20043;-77
2022/04/15 05:33:05;;;;;;;114.47;46.20;;;;;;;11.37;100.00;96015.72;5098753;28;20043;-75
2022/04/15 05:35:31;;;;;;;113.28;47.08;;;;;;;11.38;100.00;96033.91;5098758;28;20040;-74
2022/04/15 05:37:56;;;;;;;115.90;47.00;;;;;;;11.43;100.00;96035.75;5108418;28;20128;-76
2022/04/15 05:40:23;;;;;;;119.40;48.05;;;;;;;11.40;100.00;96036.25;5111554;28;20089;-76
2022/04/15 05:42:48;;;;;;;103.75;45.33;;;;;;;11.44;100.00;96032.06;5091428;28;20518;-77
2022/04/15 05:45:14;;;;;;;108.65;47.08;;;;;;;11.39;100.00;96039.94;5103713;28;20032;-76
2022/04/15 05:47:40;;;;;;;96.45;45.30;;;;;;;11.47;100.00;96042.06;5075490;28;20059;-77
2022/04/15 05:50:07;;;;;;;106.75;45.80;;;;;;;11.50;100.00;96038.91;5090827;28;20418;-76
2022/04/15 05:52:33;;;;;;;116.45;46.72;;;;;;;11.44;100.00;96038.09;5072923;28;20331;-77
2022/04/15 05:54:59;;;;;;;105.18;46.35;;;;;;;11.42;100.00;96042.06;5104881;28;20059;-79
2022/04/15 05:57:24;;;;;;;104.13;46.42;;;;;;;11.39;100.00;96042.56;5075844;28;20084;-77
2022/04/15 05:59:50;;;;;;;108.65;47.92;;;;;;;11.38;100.00;96048.91;5097355;28;20052;-76
2022/04/15 06:02:15;;;;;;;108.68;47.58;;;;;;;11.50;100.00;96046.81;5102541;28;20043;-77
2022/04/15 06:04:41;;;;;;;122.00;50.65;;;;;;;11.54;100.00;96047.88;5091631;28;20036;-77
2022/04/15 06:07:06;;;;;;;109.82;47.25;;;;;;;11.61;100.00;96040.50;5094008;28;20047;-77
2022/04/15 06:09:32;;;;;;;101.80;46.60;;;;;;;11.66;100.00;96049.47;5092768;28;20046;-77
2022/04/15 06:11:57;;;;;;;109.20;47.97;;;;;;;11.70;100.00;96051.31;5091392;28;20386;-77
2022/04/15 06:14:23;;;;;;;103.93;45.97;;;;;;;11.69;100.00;96054.22;5097456;28;20051;-76
2022/04/15 06:16:49;;;;;;;110.03;48.20;;;;;;;11.69;100.00;96062.91;5100687;28;20043;-77
2022/04/15 06:19:16;;;;;;;110.05;47.10;;;;;;;11.80;100.00;96055.81;5091206;28;20048;-74
2022/04/15 06:21:42;;;;;;;106.38;44.92;;;;;;;11.70;100.00;96064.50;5089267;28;20066;-78
2022/04/15 06:24:08;;;;;;;92.57;42.45;;;;;;;11.65;100.00;96063.69;5109854;28;20050;-77
2022/04/15 06:26:37;;;;;;;93.97;44.72;;;;;;;11.75;100.00;96067.16;5104272;28;20048;-78
2022/04/15 06:29:04;;;;;;;95.13;43.55;;;;;;;11.71;100.00;96057.38;5087788;28;20036;-76
2022/04/15 06:31:29;;;;;;;90.50;42.78;;;;;;;11.81;100.00;96062.69;5097112;28;20036;-80
2022/04/15 06:33:56;;;;;;;95.82;43.75;;;;;;;11.88;100.00;96068.47;5109675;28;20038;-76
2022/04/15 06:36:22;;;;;;;95.10;44.92;;;;;;;11.98;100.00;96066.91;5108840;27;20051;-76
2022/04/15 06:38:48;;;;;;;105.22;44.92;;;;;;;11.94;100.00;96067.44;5092626;28;20066;-74
2022/04/15 06:41:14;;;;;;;94.50;42.92;;;;;;;11.91;100.00;96067.13;5082987;28;20036;-83
2022/04/15 06:43:39;;;;;;;88.45;40.92;;;;;;;11.79;100.00;96064.78;5094038;28;20036;-78
2022/04/15 06:46:05;;;;;;;99.70;43.03;;;;;;;11.90;100.00;96071.63;5095238;28;20052;-75
2022/04/15 06:48:31;;;;;;;98.43;42.47;;;;;;;11.88;100.00;96073.75;5078871;28;20050;-76
2022/04/15 06:50:57;;;;;;;91.88;43.05;;;;;;;11.90;100.00;96076.91;5091078;28;20044;-76
2022/04/15 06:53:23;;;;;;;94.40;43.17;;;;;;;11.81;100.00;96073.22;5090894;28;20102;-73
2022/04/15 06:55:50;;;;;;;88.70;41.58;;;;;;;11.82;100.00;96074.00;5093907;28;20047;-74
2022/04/15 06:58:15;;;;;;;84.88;38.50;;;;;;;11.81;100.00;96078.50;5105173;28;20071;-75
2022/04/15 07:00:41;;;;;;;81.15;38.65;;;;;;;11.86;100.00;96070.56;5096015;28;20075;-75
2022/04/15 07:03:08;;;;;;;79.68;38.83;;;;;;;11.88;100.00;96084.31;5081201;28;20060;-74
2022/04/15 07:05:33;;;;;;;79.90;37.78;;;;;;;12.00;100.00;96091.19;5077065;28;20044;-76
2022/04/15 07:07:58;;;;;;;78.82;37.65;;;;;;;11.99;100.00;96089.59;5098244;28;20039;-75
2022/04/15 07:10:24;;;;;;;72.57;38.75;;;;;;;12.04;100.00;96092.22;5106995;28;20036;-74
2022/04/15 07:12:50;;;;;;;69.80;36.55;;;;;;;11.99;100.00;96086.97;5100141;28;20428;-76
2022/04/15 07:15:16;;;;;;;72.70;36.97;;;;;;;12.12;100.00;96083.78;5074774;28;20111;-77
2022/04/15 07:17:41;;;;;;;73.65;36.40;;;;;;;12.24;100.00;96092.25;5089864;28;20213;-74
2022/04/15 07:20:07;;;;;;;73.05;36.40;;;;;;;12.23;100.00;96088.00;5099161;28;20048;-74
2022/04/15 07:22:33;;;;;;;65.97;34.50;;;;;;;12.10;100.00;96091.19;5097448;28;20039;-76
2022/04/15 07:24:59;;;;;;;64.15;34.65;;;;;;;12.08;100.00;96090.66;5086819;28;20050;-76
2022/04/15 07:27:24;;;;;;;71.28;35.25;;;;;;;12.10;100.00;96096.47;5083986;28;20091;-75
2022/04/15 07:29:49;;;;;;;63.65;34.72;;;;;;;12.08;100.00;96093.28;5078841;28;20044;-77
2022/04/15 07:32:21;;;;;;;65.25;35.65;;;;;;;12.12;100.00;96099.63;5071058;28;20044;-75
2022/04/15 07:34:47;;;;;;;66.43;35.45;;;;;;;12.16;100.00;96095.41;5099480;28;20043;-76
2022/04/15 07:37:12;;;;;;;64.72;33.20;;;;;;;12.10;100.00;96096.47;5100521;28;20692;-73
2022/04/15 07:39:38;;;;;;;73.75;35.17;;;;;;;12.02;100.00;96100.41;5099656;28;20039;-75
2022/04/15 07:42:04;;;;;;;63.30;34.45;;;;;;;12.00;100.00;96096.47;5102010;28;20044;-76
2022/04/15 07:44:30;;;;;;;70.85;36.35;;;;;;;12.14;100.00;96092.25;5099936;28;20449;-74
2022/04/15 07:46:56;;;;;;;65.07;34.35;;;;;;;12.20;100.00;96095.69;5083367;28;20055;-73
2022/04/15 07:49:22;;;;;;;64.03;34.22;;;;;;;12.26;100.00;96098.03;5089102;28;20040;-76
2022/04/15 07:51:48;;;;;;;65.60;33.60;;;;;;;12.12;100.00;96100.44;5092263;28;20044;-74
2022/04/15 07:54:14;;;;;;;60.90;33.15;;;;;;;12.04;100.00;96106.22;5104316;28;20047;-78
2022/04/15 07:56:40;;;;;;;60.80;33.00;;;;;;;12.10;100.00;96105.16;5111815;28;20047;-77
2022/04/15 07:59:07;;;;;;;59.72;32.78;;;;;;;12.16;100.00;96102.53;5102676;28;20036;-75
2022/04/15 08:01:33;;;;;;;63.58;34.25;;;;;;;12.28;100.00;96109.13;5094735;28;20051;-79
2022/04/15 08:03:59;;;;;;;68.93;33.78;;;;;;;12.42;100.00;96105.94;5089802;28;20408;-75
2022/04/15 08:06:28;;;;;;;64.80;33.25;;;;;;;12.50;100.00;96108.06;5101298;28;20078;-74
2022/04/15 08:08:55;;;;;;;60.03;30.67;;;;;;;12.38;100.00;96102.25;5091820;28;20097;-74
2022/04/15 08:11:25;;;;;;;64.15;33.20;;;;;;;12.43;100.00;96110.19;5071463;28;20135;-75
2022/04/15 08:13:52;;;;;;;68.43;35.08;;;;;;;12.40;100.00;96105.44;5092346;28;20090;-75
2022/04/15 08:16:18;;;;;;;63.65;34.78;;;;;;;12.47;100.00;96105.94;5107425;28;20055;-75
2022/04/15 08:18:44;;;;;;;64.72;33.53;;;;;;;12.46;100.00;96114.91;5083834;28;20040;-75
2022/04/15 08:21:09;;;;;;;64.10;34.13;;;;;;;12.50;100.00;96115.97;5092717;28;20078;-75
2022/04/15 08:23:36;;;;;;;65.43;34.53;;;;;;;12.67;100.00;96112.22;5110037;28;20107;-74
2022/04/15 08:26:04;;;;;;;60.50;34.60;;;;;;;12.68;100.00;96119.09;5093079;28;20047;-75
2022/04/15 08:28:30;;;;;;;64.78;34.60;;;;;;;12.77;100.00;96120.13;5108567;28;20054;-75
2022/04/15 08:30:55;;;;;;;62.67;35.72;;;;;;;12.87;100.00;96120.09;5098926;28;20111;-75
2022/04/15 08:33:22;;;;;;;69.55;36.92;;;;;;;13.02;100.00;96126.44;5092259;28;20461;-75
2022/04/15 08:35:48;;;;;;;68.10;34.13;;;;;;;13.25;100.00;96125.78;5092674;28;20051;-74
2022/04/15 08:38:14;;;;;;;65.20;36.30;;;;;;;13.09;100.00;96130.34;5092683;28;20050;-75
2022/04/15 08:40:46;;;;;;;66.05;33.85;;;;;;;13.14;100.00;96130.31;5094430;28;20044;-75
2022/04/15 08:43:11;;;;;;;65.97;35.70;;;;;;;13.41;100.00;96133.69;5083025;28;20036;-75
2022/04/15 08:45:41;;;;;;;66.22;33.85;;;;;;;13.47;100.00;96127.31;5093082;28;20051;-75
2022/04/15 08:48:08;;;;;;;56.90;32.55;;;;;;;13.45;100.00;96134.75;5113134;27;20036;-76
2022/04/15 08:50:34;;;;;;;53.83;30.63;;;;;;;13.16;100.00;96127.44;5093437;28;20095;-75
2022/04/15 08:53:00;;;;;;;54.47;30.73;;;;;;;12.97;100.00;96130.66;5092477;28;20044;-76
2022/04/15 08:55:28;;;;;;;58.13;30.20;;;;;;;13.31;100.00;96134.50;5093065;28;20162;-76
2022/04/15 08:57:54;;;;;;;58.75;32.08;;;;;;;13.47;100.00;96143.16;5109421;28;20044;-75
2022/04/15 09:00:21;;;;;;;52.35;28.13;;;;;;;13.18;100.00;96131.34;5108222;28;20040;-76
2022/04/15 09:02:47;;;;;;;49.63;27.80;;;;;;;13.49;100.00;96133.13;5112488;28;20037;-75
2022/04/15 09:05:18;;;;;;;45.60;26.90;;;;;;;13.37;98.72;96132.66;5110382;28;20055;-75
2022/04/15 09:07:45;;;;;;;48.70;27.67;;;;;;;13.29;97.13;96137.41;5093216;28;20089;-76
2022/04/15 09:10:12;;;;;;;51.88;27.92;;;;;;;13.49;97.88;96136.56;5103695;27;20043;-82
2022/04/15 09:12:39;;;;;;;46.28;26.77;;;;;;;13.34;96.81;96140.03;5113002;27;20047;-77
2022/04/15 09:15:05;;;;;;;49.83;27.85;;;;;;;13.54;99.53;96138.38;5102721;27;20092;-77
2022/04/15 09:17:31;;;;;;;46.58;27.60;;;;;;;13.74;100.00;96137.47;5076169;28;20615;-78
2022/04/15 09:19:59;;;;;;;47.33;27.50;;;;;;;13.73;95.59;96135.09;5092988;28;20048;-76
2022/04/15 09:22:25;;;;;;;47.90;27.33;;;;;;;13.79;96.96;96134.00;5080626;28;20513;-76
2022/04/15 09:24:51;;;;;;;45.10;25.77;;;;;;;13.73;96.22;96137.75;5097198;28;20120;-80
2022/04/15 09:27:19;;;;;;;47.72;26.17;;;;;;;14.09;100.00;96137.50;5102610;28;20344;-78
2022/04/15 09:29:46;;;;;;;46.97;26.67;;;;;;;14.03;95.82;96137.53;5093991;28;20051;-78
2022/04/15 09:32:17;;;;;;;44.33;26.70;;;;;;;14.14;95.14;96137.50;5092906;28;20115;-77
2022/04/15 09:35:15;;;;;;;42.90;22.80;;;;;;;14.10;93.66;96139.88;5092001;28;20048;-77
2022/04/15 09:37:44;;;;;;;34.30;20.63;;;;;;;14.08;88.97;96135.94;5065635;28;20055;-76
2022/04/15 09:40:09;;;;;;;36.05;22.05;;;;;;;14.14;90.66;96140.13;5093867;28;20104;-76
2022/04/15 09:42:36;;;;;;;36.60;20.80;;;;;;;14.19;86.76;96129.50;5111918;28;20048;-76
2022/04/15 09:45:37;;;;;;;36.83;20.08;;;;;;;13.96;83.53;96145.00;5097374;28;20554;-76
2022/04/15 09:48:04;;;;;;;34.70;20.10;;;;;;;13.96;87.60;96139.69;5048717;28;20049;-75
2022/04/15 09:50:43;;;;;;;36.42;22.00;;;;;;;14.39;92.26;96141.78;5098515;28;20373;-75
2022/04/15 09:53:20;;;;;;;36.25;22.60;;;;;;;14.58;85.39;96144.50;5110852;28;20040;-74
2022/04/15 09:55:48;;;;;;;36.95;21.73;;;;;;;14.54;87.78;96140.88;5094152;28;20483;-75
2022/04/15 09:58:17;;;;;;;36.90;20.63;;;;;;;14.66;88.60;96129.91;5093159;28;20048;-75
2022/04/15 10:00:47;;;;;;;34.33;19.75;;;;;;;14.66;83.30;96136.00;5091748;28;20425;-74
2022/04/15 10:03:21;;;;;;;33.58;21.73;;;;;;;14.83;86.46;96124.97;5073339;28;20040;-74
2022/04/15 10:05:49;;;;;;;31.52;19.60;;;;;;;15.25;83.00;96125.31;5073586;28;20044;-75
2022/04/15 10:08:15;;;;;;;32.83;19.08;;;;;;;15.25;80.66;96120.00;5098030;28;20093;-76
2022/04/15 10:10:41;;;;;;;34.15;19.88;;;;;;;15.18;78.07;96124.84;5088568;28;20622;-75
2022/04/15 10:13:07;;;;;;;34.17;19.85;;;;;;;15.46;81.87;96119.72;5111938;28;20051;-75
2022/04/15 10:15:33;;;;;;;37.95;20.05;;;;;;;15.71;84.88;96116.75;5099333;28;20430;-75
2022/04/15 10:18:00;;;;;;;34.58;20.00;;;;;;;16.06;72.94;96116.53;5079798;28;20058;-76
2022/04/15 10:20:30;;;;;;;37.22;21.00;;;;;;;16.14;73.84;96113.22;5087505;28;20059;-76
2022/04/15 10:23:04;;;;;;;34.03;20.45;;;;;;;16.70;81.47;96119.47;5111381;28;20047;-76
2022/04/15 10:25:30;;;;;;;36.83;19.87;;;;;;;17.36;73.61;96107.88;5093048;28;20070;-77
2022/04/15 10:28:04;;;;;;;29.75;18.17;;;;;;;17.24;67.19;96116.34;5091684;28;20040;-75
2022/04/15 10:30:30;;;;;;;38.97;20.85;;;;;;;17.25;74.07;96102.75;5105219;28;20040;-74
2022/04/15 10:32:59;;;;;;;34.70;18.73;;;;;;;17.42;74.13;96099.47;5100783;28;20047;-74
2022/04/15 10:35:34;;;;;;;31.65;18.80;;;;;;;16.73;70.08;96097.59;5092664;28;20028;-76
2022/04/15 10:38:11;;;;;;;28.77;17.40;;;;;;;16.01;74.72;96098.81;5092390;28;20050;-75
2022/04/15 10:40:43;;;;;;;29.05;16.45;;;;;;;16.17;70.25;96102.03;5093058;28;20051;-73
2022/04/15 10:43:23;;;;;;;28.27;16.45;;;;;;;16.13;71.91;96094.94;5092495;28;20044;-74
2022/04/15 10:46:10;;;;;;;28.88;17.08;;;;;;;15.23;68.48;96090.34;5100592;28;20036;-75
2022/04/15 10:48:37;;;;;;;34.10;17.40;;;;;;;16.48;72.71;96092.75;5102981;28;20048;-74
2022/04/15 10:51:23;;;;;;;28.02;15.98;;;;;;;17.92;65.99;96097.91;5107616;28;20089;-73
2022/04/15 10:53:49;;;;;;;29.92;17.38;;;;;;;18.05;62.45;96099.72;5090665;28;20043;-73
2022/04/15 10:56:15;;;;;;;29.38;16.48;;;;;;;18.97;60.61;96093.19;5082101;28;20047;-74
2022/04/15 11:01:53;;;;;;;25.45;13.98;;;;;;;18.16;63.48;96097.63;5106704;28;20048;-72
2022/04/15 11:04:25;;;;;;;24.73;14.77;;;;;;;18.63;60.95;96105.22;5079230;28;20497;-72
2022/04/15 11:06:52;;;;;;;24.25;14.13;;;;;;;17.65;55.89;96099.53;5088080;28;20079;-72
2022/04/15 11:09:22;;;;;;;25.98;14.88;;;;;;;17.57;59.93;96092.25;5082897;28;20413;-74
2022/04/15 11:11:52;;;;;;;25.10;14.73;;;;;;;17.21;66.14;96085.03;5108711;28;20165;-74